Last 24 Hours

Red Mountain

10 Minute Data | America/Los_Angeles
as of 9/5/26 3:13 AM PDT
Date & Time Temp (°F) Dew Pt (°F) RH (%) Wind Spd (mph) Wind Dir (°) Wind Gust (mph) Wind Gst Dir (°) Daily Max Temp (°F) Daily Min Temp (°F)
9/5/26 - 0300 64.1 31.1 29 5.4 SE | 143 6.1 SE | 139 64.7 63.6
9/5/26 - 0250 63.9 31.1 29 5.5 SSE | 150 6.1 SSE | 151 64.7 63.6
9/5/26 - 0240 63.9 31.4 29 5.9 SSE | 153 6.9 SSE | 154 64.7 63.6
9/5/26 - 0230 64.0 31.6 30 6.5 SSE | 154 7.5 SSE | 152 64.7 63.6
9/5/26 - 0220 64.0 31.8 30 7.1 SSE | 150 8.0 SSE | 156 64.7 63.6
9/5/26 - 0210 64.2 31.8 30 7.4 SSE | 147 8.9 SSE | 148 64.7 63.6
9/5/26 - 0200 64.3 31.7 29 6.3 SE | 145 8.8 SSE | 148 64.7 63.6
9/5/26 - 0150 64.6 31.8 29 6.2 SE | 143 7.0 SE | 145 64.7 63.6
9/5/26 - 0140 64.6 32.3 30 6.4 SE | 140 7.4 SE | 139 64.7 63.6
9/5/26 - 0130 64.6 32.6 30 6.9 SE | 134 8.2 SE | 133 64.7 63.6
9/5/26 - 0120 64.2 32.7 31 8.7 SE | 132 9.9 SE | 132 64.3 63.6
9/5/26 - 0110 63.9 35.0 34 8.8 SE | 132 9.6 SE | 133 64.1 63.6
9/5/26 - 0100 63.5 37.9 39 8.6 SE | 131 9.2 SE | 129 73.7 59.3
9/5/26 - 0050 63.3 40.6 43 7.4 SE | 140 8.7 SE | 139 73.7 59.3
9/5/26 - 0040 63.4 41.1 44 7.0 SE | 143 8.0 SSE | 148 73.7 59.3
9/5/26 - 0030 63.6 40.9 43 5.6 SE | 135 6.6 SE | 144 73.7 59.3
9/5/26 - 0020 63.2 40.6 43 5.7 SE | 135 6.6 SE | 130 73.7 59.3
9/5/26 - 0010 63.1 40.6 44 3.4 SE | 136 6.1 SE | 133 73.7 59.3
9/5/26 - 0000 63.3 40.5 43 1.9 SE | 135 4.2 SE | 126 73.7 59.3
9/4/26 - 2350 63.9 40.6 42 1.9 WSW | 239 3.9 SW | 234 73.7 59.3
9/4/26 - 2340 64.8 40.2 40 1.5 SSW | 198 3.9 SW | 231 73.7 59.3
9/4/26 - 2330 64.5 39.9 40 0.6 ESE | 115 1.3 ENE | 70 73.7 59.3
9/4/26 - 2320 64.4 40.2 41 0.7 SSE | 156 2.8 SSE | 150 73.7 59.3
9/4/26 - 2310 64.4 40.7 42 1.4 WNW | 292 2.9 WNW | 290 73.7 59.3
9/4/26 - 2300 64.5 41.8 43 1.8 W | 278 2.3 W | 280 73.7 59.3
9/4/26 - 2250 64.9 40.7 41 1.9 WSW | 254 3.8 W | 264 73.7 59.3
9/4/26 - 2240 64.8 40.9 42 1.0 WNW | 288 2.0 NNW | 330 73.7 59.3
9/4/26 - 2230 65.1 41.2 42 1.8 NW | 309 2.6 NW | 313 73.7 59.3
9/4/26 - 2220 65.1 39.9 40 1.1 NW | 307 1.6 NW | 314 73.7 59.3
9/4/26 - 2210 64.6 39.8 40 1.0 NW | 316 2.3 N | 354 73.7 59.3
9/4/26 - 2200 63.6 39.9 42 2.5 NNE | 13 3.8 NNE | 24 73.7 59.3
9/4/26 - 2150 63.5 40.0 42 3.8 NNE | 22 5.0 NNE | 21 73.7 59.3
9/4/26 - 2140 64.1 41.0 43 3.3 NNE | 18 5.0 NNE | 19 73.7 59.3
9/4/26 - 2130 64.1 40.3 42 4.3 NNE | 21 5.2 NNE | 21 73.7 59.3
9/4/26 - 2120 63.8 40.9 43 3.5 N | 9 4.3 N | 8 73.7 59.3
9/4/26 - 2110 63.2 43.2 48 3.5 N | 360 5.4 NNE | 15 73.7 59.3
9/4/26 - 2100 63.7 41.3 44 5.9 NNE | 14 6.6 NNE | 14 73.7 59.3
9/4/26 - 2050 63.9 40.8 43 6.8 NNE | 12 7.9 N | 10 73.7 59.3
9/4/26 - 2040 64.2 41.2 43 6.2 N | 3 6.9 N | 8 73.7 59.3
9/4/26 - 2030 64.3 42.1 44 5.1 NNW | 336 6.5 N | 0 73.7 59.3
9/4/26 - 2020 63.8 44.4 49 5.0 WNW | 303 6.1 WNW | 301 73.7 59.3
9/4/26 - 2010 63.6 44.2 49 5.5 WNW | 298 6.9 WNW | 289 73.7 59.3
9/4/26 - 2000 63.4 45.3 52 5.8 W | 264 8.6 WSW | 257 73.7 59.3
9/4/26 - 1950 63.8 44.6 50 5.1 WSW | 257 8.5 WSW | 258 73.7 59.3
9/4/26 - 1940 63.6 43.1 47 4.5 WSW | 254 5.5 WSW | 255 73.7 59.3
9/4/26 - 1930 63.0 39.7 42 5.1 WSW | 251 6.1 WSW | 247 73.7 59.3
9/4/26 - 1920 62.6 40.0 43 6.3 WSW | 245 9.3 WSW | 246 73.7 59.3
9/4/26 - 1910 63.4 40.3 43 7.7 WSW | 243 9.3 WSW | 243 73.7 59.3
9/4/26 - 1900 64.2 40.6 42 6.9 WSW | 244 9.9 WSW | 248 73.7 59.3
9/4/26 - 1850 64.9 42.0 43 7.0 WSW | 242 9.3 WSW | 255 73.7 59.3
9/4/26 - 1840 65.0 43.3 45 6.6 WSW | 242 9.4 SW | 215 73.7 59.3
9/4/26 - 1830 65.8 42.9 43 7.0 WSW | 243 10.0 SW | 232 73.7 59.3
9/4/26 - 1820 65.8 43.0 43 6.0 SW | 231 12.2 WSW | 252 73.7 59.3
9/4/26 - 1810 65.6 44.9 47 8.1 SW | 235 11.7 SW | 235 73.7 59.3
9/4/26 - 1800 65.9 45.0 47 10.4 WSW | 237 15.4 SW | 228 73.7 59.3
9/4/26 - 1750 66.8 44.0 44 10.8 SW | 233 16.2 SW | 228 73.7 59.3
9/4/26 - 1740 67.4 42.9 41 11.8 WSW | 237 18.0 WSW | 238 73.7 59.3
9/4/26 - 1730 67.5 43.7 42 11.2 SW | 231 18.2 WSW | 240 73.7 59.3
9/4/26 - 1720 67.9 43.9 42 13.4 SW | 236 19.2 SW | 233 73.7 59.3
9/4/26 - 1710 68.8 43.7 40 12.9 WSW | 237 20.2 WSW | 250 73.7 59.3
9/4/26 - 1700 69.2 43.1 39 11.8 SW | 236 17.6 SW | 235 73.7 59.3
9/4/26 - 1650 68.6 44.7 42 11.1 SW | 234 18.8 SW | 234 73.7 59.3
9/4/26 - 1640 70.1 45.8 42 11.5 WSW | 241 17.8 WSW | 244 73.7 59.3
9/4/26 - 1630 69.5 45.2 42 11.7 SW | 230 19.4 SW | 218 73.7 59.3
9/4/26 - 1620 71.2 46.2 41 9.6 WSW | 238 18.9 WSW | 245 73.7 59.3
9/4/26 - 1610 69.9 46.6 43 12.3 SW | 234 20.1 WSW | 244 73.7 59.3
9/4/26 - 1600 69.8 46.4 43 13.0 SW | 230 23.0 WSW | 242 73.7 59.3
9/4/26 - 1550 71.8 46.2 40 8.9 SW | 232 19.1 SW | 232 73.7 59.3
9/4/26 - 1540 70.0 45.9 42 13.8 WSW | 237 21.7 SW | 233 73.7 59.3
9/4/26 - 1530 70.6 44.8 39 10.1 SW | 235 18.7 WSW | 252 73.7 59.3
9/4/26 - 1520 71.4 44.6 38 10.5 SW | 231 18.6 SW | 234 73.7 59.3
9/4/26 - 1510 71.0 43.7 37 12.6 WSW | 250 20.8 WSW | 253 73.7 59.3
9/4/26 - 1500 71.3 43.1 36 11.8 SW | 234 20.1 WSW | 249 73.7 59.3
9/4/26 - 1450 70.6 42.7 36 11.2 SW | 227 19.0 WSW | 252 73.7 59.3
9/4/26 - 1440 71.1 43.4 37 13.6 SW | 235 21.8 SW | 230 73.7 59.3
9/4/26 - 1430 71.7 43.7 36 12.3 WSW | 237 19.9 WSW | 257 73.7 59.3
9/4/26 - 1420 72.0 43.1 35 10.5 WSW | 238 19.4 WSW | 245 73.7 59.3
9/4/26 - 1410 71.4 43.4 36 9.1 SW | 235 17.9 SW | 234 73.7 59.3
9/4/26 - 1400 70.6 43.1 37 9.7 SW | 231 17.2 SW | 236 73.5 59.3
9/4/26 - 1350 71.1 42.9 36 12.0 WSW | 241 21.0 WSW | 245 73.5 59.3
9/4/26 - 1340 71.2 42.6 36 10.5 W | 280 18.6 WSW | 256 73.5 59.3
9/4/26 - 1330 69.2 43.3 39 8.6 WNW | 282 15.7 W | 272 71.0 59.3
9/4/26 - 1320 69.1 44.0 40 10.4 W | 260 17.0 W | 274 70.1 59.3
9/4/26 - 1310 68.6 44.2 41 8.6 W | 267 15.6 SW | 224 70.1 59.3
9/4/26 - 1300 68.1 44.0 42 10.7 W | 275 17.5 W | 276 68.8 59.3
9/4/26 - 1250 67.2 44.6 44 9.5 WNW | 285 15.9 WNW | 287 68.2 59.3
9/4/26 - 1240 67.4 44.6 44 10.3 W | 262 18.2 W | 266 68.2 59.3
9/4/26 - 1230 67.1 45.9 46 8.7 W | 261 16.7 W | 262 68.2 59.3
9/4/26 - 1220 66.4 45.6 47 10.1 WSW | 255 20.0 W | 260 67.4 59.3
9/4/26 - 1210 66.0 45.8 48 9.8 WSW | 248 14.1 SW | 236 67.4 59.3
9/4/26 - 1200 66.2 46.7 49 8.7 WSW | 250 16.2 WSW | 243 67.4 59.3
9/4/26 - 1150 66.3 47.8 51 8.8 WSW | 257 15.6 WSW | 258 67.4 59.3
9/4/26 - 1140 66.2 47.7 51 8.7 W | 259 14.5 W | 276 67.4 59.3
9/4/26 - 1130 65.8 47.2 51 7.9 WSW | 252 12.8 W | 260 67.4 59.3
9/4/26 - 1120 65.8 47.0 51 7.6 WSW | 242 14.0 SW | 236 67.4 59.3
9/4/26 - 1110 65.3 48.0 54 8.6 WSW | 240 14.9 WSW | 242 67.4 59.3
9/4/26 - 1100 65.5 47.8 53 8.1 WSW | 253 12.8 W | 272 67.4 59.3
9/4/26 - 1050 66.5 45.9 47 7.4 SW | 236 12.5 W | 261 67.4 59.3
9/4/26 - 1040 65.8 42.2 42 7.5 SW | 228 11.5 SW | 225 67.4 59.3
9/4/26 - 1030 65.5 41.6 42 6.9 SW | 236 11.6 SW | 230 67.4 59.3
9/4/26 - 1020 65.1 40.6 41 8.3 SW | 234 12.9 WSW | 238 66.0 59.3
9/4/26 - 1010 65.8 34.8 32 6.1 SW | 222 9.7 SW | 226 66.0 59.3
9/4/26 - 1000 65.8 33.8 30 5.7 SW | 225 10.2 W | 264 66.0 59.3
9/4/26 - 0950 65.1 35.2 33 4.9 SW | 220 7.5 WSW | 241 66.0 59.3
9/4/26 - 0940 65.6 32.6 29 3.9 SW | 224 7.5 WSW | 246 66.0 59.3
9/4/26 - 0930 65.1 29.8 26 3.7 SSW | 213 6.1 SW | 221 65.9 59.3
9/4/26 - 0920 64.8 27.8 25 4.3 SW | 228 5.8 SW | 231 65.9 59.3
9/4/26 - 0910 65.0 26.8 24 4.2 SW | 221 6.2 SSW | 204 65.9 59.3
9/4/26 - 0900 65.6 13.3 13 3.4 WSW | 243 5.5 W | 260 65.9 59.3
9/4/26 - 0850 65.7 8.7 11 3.0 W | 265 5.0 W | 269 65.9 59.3
9/4/26 - 0840 65.6 2.3 8 2.1 WSW | 246 5.7 WSW | 249 65.8 59.3
9/4/26 - 0830 65.4 -0.1 7 3.2 W | 261 5.0 W | 260 65.5 59.3
9/4/26 - 0820 65.3 1.3 8 1.9 W | 261 5.3 WSW | 252 65.5 59.3
9/4/26 - 0810 65.0 0.5 7 2.0 W | 263 3.5 WSW | 253 65.0 59.3
9/4/26 - 0800 64.8 1.3 8 3.2 W | 275 4.6 W | 271 64.9 59.3
9/4/26 - 0750 64.6 2.2 8 3.3 WNW | 290 4.4 WNW | 284 64.7 59.3
9/4/26 - 0740 64.3 2.0 8 1.4 W | 275 2.8 W | 271 64.5 59.3
9/4/26 - 0730 63.9 2.2 8 0.9 NW | 309 2.6 NW | 304 64.1 59.3
9/4/26 - 0720 63.4 2.4 8 1.3 WSW | 251 2.5 WSW | 242 63.6 59.3
9/4/26 - 0710 63.2 2.5 9 3.0 WSW | 249 5.9 W | 261 63.3 59.3
9/4/26 - 0700 63.2 2.6 9 5.0 W | 265 6.7 W | 262 63.3 59.3
9/4/26 - 0650 63.0 3.4 9 4.5 W | 276 6.0 W | 269 63.2 59.3
9/4/26 - 0640 62.9 3.3 9 5.8 W | 279 7.7 W | 273 63.2 59.3
9/4/26 - 0630 62.9 2.5 9 7.3 W | 280 9.1 W | 272 63.2 59.3
9/4/26 - 0620 62.8 1.1 8 8.2 W | 275 9.4 W | 273 62.9 59.3
9/4/26 - 0610 62.6 1.2 8 6.5 W | 280 8.3 W | 276 62.7 59.3
9/4/26 - 0600 62.4 1.4 8 5.6 WNW | 286 7.2 W | 271 62.6 59.3
9/4/26 - 0550 62.1 2.1 9 4.8 WNW | 282 6.5 W | 279 62.4 59.3
9/4/26 - 0540 60.7 24.1 25 2.5 NW | 326 5.2 WNW | 288 61.6 59.3
9/4/26 - 0530 60.6 26.5 27 1.9 NNW | 344 3.1 NW | 324 61.6 59.3
9/4/26 - 0520 59.8 31.7 35 2.2 N | 6 3.7 WNW | 285 61.6 59.3
9/4/26 - 0510 59.8 31.2 34 1.4 N | 357 2.6 NNE | 21 61.6 59.3
9/4/26 - 0500 59.5 36.2 42 0.6 WSW | 246 1.6 SW | 232 61.6 59.3
9/4/26 - 0450 59.7 36.9 42 1.8 SW | 234 3.1 SW | 227 61.6 59.6
9/4/26 - 0440 59.8 36.6 42 3.7 WSW | 244 5.6 SW | 226 61.6 59.6
9/4/26 - 0430 59.8 38.3 45 3.3 WSW | 249 4.8 SW | 220 61.6 59.6
9/4/26 - 0420 59.8 38.2 45 3.2 WSW | 248 4.7 WSW | 241 61.6 59.6
9/4/26 - 0410 59.9 38.4 45 3.4 SW | 224 4.8 SW | 234 61.6 59.9
9/4/26 - 0400 60.0 38.1 44 2.6 SW | 219 4.0 SSW | 212 61.6 59.9
9/4/26 - 0350 60.0 38.4 44 2.9 SW | 236 4.9 WSW | 243 61.6 59.9
9/4/26 - 0340 60.1 38.6 45 3.8 WSW | 245 5.3 SW | 236 61.6 60.0
9/4/26 - 0330 60.1 39.1 46 4.5 W | 271 7.2 W | 264 61.6 60.0
9/4/26 - 0320 60.2 39.0 45 5.6 WSW | 245 7.8 SW | 230 61.6 60.0
9/4/26 - 0310 60.1 39.2 46 6.7 WSW | 239 8.8 WSW | 237 61.6 60.0
Max 72.0 48.0 54 13.8 - 23.0 - 73.7 63.6
Avg 65.1 35.2 36 6.3 - 9.8 - - -
Min 59.5 -0.1 7 0.6 - 1.3 - 61.6 59.3